createdAt,value
2023-04-24T00:00:37.127Z,10.76
2023-04-24T00:03:09.826Z,10.70
2023-04-24T00:05:41.377Z,10.67
2023-04-24T00:08:11.026Z,10.64
2023-04-24T00:10:40.563Z,10.62
2023-04-24T00:13:10.112Z,10.57
2023-04-24T00:15:40.052Z,10.53
2023-04-24T00:18:12.217Z,10.51
2023-04-24T00:20:41.886Z,10.47
2023-04-24T00:23:11.475Z,10.52
2023-04-24T00:25:41.130Z,10.53
2023-04-24T00:28:10.722Z,10.55
2023-04-24T00:30:40.426Z,10.65
2023-04-24T00:33:12.548Z,10.56
2023-04-24T00:35:42.136Z,10.49
2023-04-24T00:38:11.653Z,10.42
2023-04-24T00:40:41.410Z,10.45
2023-04-24T00:43:11.411Z,10.54
2023-04-24T00:45:41.087Z,10.52
2023-04-24T00:48:13.370Z,10.46
2023-04-24T00:50:43.317Z,10.47
2023-04-24T00:53:12.981Z,10.46
2023-04-24T00:55:42.664Z,10.44
2023-04-24T00:58:12.244Z,10.46
2023-04-24T01:00:42.418Z,10.42
2023-04-24T01:03:15.400Z,10.52
2023-04-24T01:05:45.483Z,10.54
2023-04-24T01:08:15.116Z,10.53
2023-04-24T01:10:45.168Z,10.49
2023-04-24T01:13:15.042Z,10.44
2023-04-24T01:15:44.617Z,10.39
2023-04-24T01:18:17.208Z,10.48
2023-04-24T01:20:49.498Z,10.45
2023-04-24T01:23:23.667Z,10.37
2023-04-24T01:25:53.584Z,10.31
2023-04-24T01:28:23.539Z,10.33
2023-04-24T01:30:53.216Z,10.32
2023-04-24T01:33:24.868Z,10.28
2023-04-24T01:35:54.756Z,10.23
2023-04-24T01:38:27.024Z,10.19
2023-04-24T01:40:56.977Z,10.21
2023-04-24T01:43:27.793Z,10.22
2023-04-24T01:45:57.390Z,10.21
2023-04-24T01:48:26.983Z,10.17
2023-04-24T01:50:56.576Z,10.21
2023-04-24T01:53:28.663Z,10.19
2023-04-24T01:55:58.214Z,10.11
2023-04-24T01:58:27.834Z,10.20
2023-04-24T02:01:00.415Z,10.22
2023-04-24T02:03:30.348Z,10.22
2023-04-24T02:06:00.132Z,10.17
2023-04-24T02:08:32.279Z,10.17
2023-04-24T02:11:03.038Z,10.18
2023-04-24T02:13:32.804Z,10.17
2023-04-24T02:16:02.400Z,10.15
2023-04-24T02:18:31.996Z,10.14
2023-04-24T02:21:01.716Z,10.11
2023-04-24T02:23:33.828Z,10.05
2023-04-24T02:26:03.517Z,10.05
2023-04-24T02:28:33.054Z,10.06
2023-04-24T02:31:02.631Z,10.09
2023-04-24T02:33:32.189Z,10.03
2023-04-24T02:36:01.817Z,9.97
2023-04-24T02:38:33.922Z,9.96
2023-04-24T02:41:07.219Z,9.90
2023-04-24T02:43:36.839Z,9.88
2023-04-24T02:46:07.105Z,9.85
2023-04-24T02:48:36.710Z,9.83
2023-04-24T02:51:07.699Z,9.88
2023-04-24T02:53:40.009Z,9.91
2023-04-24T02:56:09.800Z,9.82
2023-04-24T02:58:39.360Z,9.77
2023-04-24T03:01:08.953Z,9.75
2023-04-24T03:03:38.611Z,9.76
2023-04-24T03:06:09.116Z,9.75
2023-04-24T03:08:41.273Z,9.77
2023-04-24T03:11:10.786Z,9.75
2023-04-24T03:13:40.260Z,9.68
2023-04-24T03:16:09.866Z,9.64
2023-04-24T03:18:39.391Z,9.66
2023-04-24T03:21:09.064Z,9.63
2023-04-24T03:23:41.302Z,9.63
2023-04-24T03:26:11.485Z,9.61
2023-04-24T03:28:41.031Z,9.63
2023-04-24T03:31:10.635Z,9.54
2023-04-24T03:33:40.213Z,9.50
2023-04-24T03:36:14.486Z,9.50
2023-04-24T03:38:46.603Z,9.45
2023-04-24T03:41:16.124Z,9.52
2023-04-24T03:43:45.614Z,9.49
2023-04-24T03:46:15.145Z,9.36
2023-04-24T03:48:44.660Z,9.32
2023-04-24T03:51:14.274Z,9.26
2023-04-24T03:53:46.409Z,9.25
2023-04-24T03:56:15.976Z,9.19
2023-04-24T03:58:46.185Z,9.12
2023-04-24T04:01:17.256Z,9.08
2023-04-24T04:03:46.879Z,9.13
2023-04-24T04:06:16.722Z,9.11
2023-04-24T04:08:48.920Z,9.09
2023-04-24T04:11:18.446Z,9.10
2023-04-24T04:13:49.095Z,9.07
2023-04-24T04:16:18.929Z,9.07
2023-04-24T04:18:48.793Z,9.04
2023-04-24T04:21:18.407Z,9.02
2023-04-24T04:23:50.477Z,9.07
2023-04-24T04:26:20.289Z,9.10
2023-04-24T04:28:50.096Z,9.09
2023-04-24T04:31:19.708Z,9.10
2023-04-24T04:33:49.500Z,9.08
2023-04-24T04:36:19.768Z,9.10
2023-04-24T04:38:51.829Z,9.13
2023-04-24T04:41:21.394Z,9.14
2023-04-24T04:43:51.063Z,9.15
2023-04-24T04:46:20.595Z,9.09
2023-04-24T04:48:50.159Z,9.11
2023-04-24T04:51:19.700Z,9.21
2023-04-24T04:53:51.794Z,9.20
2023-04-24T04:56:21.867Z,9.24
2023-04-24T04:58:51.415Z,9.35
2023-04-24T05:01:21.392Z,9.46
2023-04-24T05:03:51.352Z,9.49
2023-04-24T05:06:24.254Z,9.56
2023-04-24T05:08:58.428Z,9.62
2023-04-24T05:11:28.157Z,9.53
2023-04-24T05:13:57.958Z,9.51
2023-04-24T05:16:27.539Z,9.46
2023-04-24T05:18:57.076Z,9.45
2023-04-24T05:21:26.660Z,9.49
2023-04-24T05:23:58.893Z,9.50
2023-04-24T05:26:28.560Z,9.58
2023-04-24T05:28:58.170Z,9.60
2023-04-24T05:31:27.812Z,9.63
2023-04-24T05:33:57.392Z,9.63
2023-04-24T05:36:28.196Z,9.69
2023-04-24T05:39:00.310Z,9.69
2023-04-24T05:41:29.863Z,9.81
2023-04-24T05:44:00.979Z,9.85
2023-04-24T05:46:30.645Z,9.92
2023-04-24T05:49:00.273Z,10.06
2023-04-24T05:51:30.006Z,10.12
2023-04-24T05:54:02.444Z,10.01
2023-04-24T05:56:32.116Z,9.96
2023-04-24T05:59:01.660Z,9.99
2023-04-24T06:01:32.566Z,9.99
2023-04-24T06:04:02.244Z,10.01
2023-04-24T06:06:32.512Z,10.08
2023-04-24T06:09:04.852Z,10.02
2023-04-24T06:11:34.371Z,10.07
2023-04-24T06:14:04.225Z,10.08
2023-04-24T06:16:34.073Z,10.05
2023-04-24T06:19:03.862Z,10.05
2023-04-24T06:21:33.548Z,10.07
2023-04-24T06:24:05.836Z,10.12
2023-04-24T06:26:35.427Z,10.17
2023-04-24T06:29:05.154Z,10.18
2023-04-24T06:31:38.065Z,10.21
2023-04-24T06:34:08.040Z,10.38
2023-04-24T06:36:40.412Z,10.42
2023-04-24T06:39:13.429Z,10.44
2023-04-24T06:41:43.555Z,10.35
2023-04-24T06:44:13.386Z,10.42
2023-04-24T06:46:43.330Z,10.43
2023-04-24T06:49:13.160Z,10.42
2023-04-24T06:51:42.709Z,10.52
2023-04-24T06:54:14.893Z,10.53
2023-04-24T06:56:46.780Z,10.59
2023-04-24T06:59:16.669Z,10.71
2023-04-24T07:01:46.591Z,10.85
2023-04-24T07:04:16.849Z,10.84
2023-04-24T07:06:47.009Z,10.94
2023-04-24T07:09:20.028Z,10.94
2023-04-24T07:11:49.799Z,10.97
2023-04-24T07:14:19.571Z,11.13
2023-04-24T07:16:49.309Z,10.96
2023-04-24T07:19:19.038Z,11.10
2023-04-24T07:21:48.618Z,11.16
2023-04-24T07:24:22.110Z,11.00
2023-04-24T07:26:52.980Z,11.02
2023-04-24T07:29:22.724Z,10.90
2023-04-24T07:31:52.341Z,10.83
2023-04-24T07:34:21.955Z,10.72
2023-04-24T07:36:51.650Z,10.80
2023-04-24T07:39:23.765Z,11.08
2023-04-24T07:41:53.310Z,10.92
2023-04-24T07:44:22.853Z,11.05
2023-04-24T07:46:52.421Z,11.18
2023-04-24T07:49:21.947Z,11.25
2023-04-24T07:51:53.927Z,11.44
2023-04-24T07:54:26.042Z,11.38
2023-04-24T07:56:55.702Z,11.55
2023-04-24T07:59:27.302Z,11.15
2023-04-24T08:01:57.429Z,10.93
2023-04-24T08:04:27.133Z,10.91
2023-04-24T08:06:56.801Z,10.99
2023-04-24T08:09:28.995Z,10.93
2023-04-24T08:11:58.514Z,10.87
2023-04-24T08:14:28.178Z,10.77
2023-04-24T08:17:00.581Z,10.92
2023-04-24T08:19:32.670Z,10.97
2023-04-24T08:22:02.239Z,11.12
2023-04-24T08:24:34.350Z,11.18
2023-04-24T08:27:03.923Z,11.29
2023-04-24T08:29:33.436Z,11.14
2023-04-24T08:32:03.125Z,10.98
2023-04-24T08:34:32.811Z,11.00
2023-04-24T08:37:02.326Z,10.82
2023-04-24T08:39:34.540Z,11.02
2023-04-24T08:42:09.110Z,10.95
2023-04-24T08:44:39.901Z,11.00
2023-04-24T08:47:10.862Z,10.98
2023-04-24T08:49:41.172Z,10.97
2023-04-24T08:52:14.522Z,10.98
2023-04-24T08:54:47.912Z,10.89
2023-04-24T08:57:18.608Z,10.78
2023-04-24T08:59:48.579Z,10.79
2023-04-24T09:02:18.543Z,10.86
2023-04-24T09:04:48.475Z,10.90
2023-04-24T09:07:19.107Z,10.93
2023-04-24T09:09:52.171Z,10.91
2023-04-24T09:12:21.961Z,10.94
2023-04-24T09:14:52.127Z,10.93
2023-04-24T09:17:23.932Z,10.90
2023-04-24T09:19:53.725Z,10.93
2023-04-24T09:22:24.249Z,11.07
2023-04-24T09:25:03.798Z,10.96
2023-04-24T09:27:33.434Z,10.93
2023-04-24T09:30:03.372Z,10.97
2023-04-24T09:32:33.249Z,11.01
2023-04-24T09:35:10.686Z,11.11
2023-04-24T09:37:42.579Z,10.99
2023-04-24T09:40:16.993Z,11.08
2023-04-24T09:42:48.004Z,10.94
2023-04-24T09:45:17.819Z,10.89
2023-04-24T09:47:47.313Z,11.02
2023-04-24T09:50:19.890Z,11.14
2023-04-24T09:52:51.841Z,11.24
2023-04-24T09:55:24.325Z,11.14
2023-04-24T09:57:55.555Z,11.10
2023-04-24T10:00:29.933Z,11.07
2023-04-24T10:03:01.213Z,10.89
2023-04-24T10:05:32.423Z,10.89
2023-04-24T10:08:05.193Z,10.85
2023-04-24T10:10:39.408Z,10.93
2023-04-24T10:13:08.922Z,11.04
2023-04-24T10:15:38.679Z,10.87
2023-04-24T10:18:09.619Z,10.87
2023-04-24T10:20:40.732Z,10.90
2023-04-24T10:23:10.660Z,10.77
2023-04-24T10:25:42.888Z,10.69
2023-04-24T10:28:13.757Z,10.73
2023-04-24T10:30:46.797Z,10.81
2023-04-24T10:33:16.923Z,10.82
2023-04-24T10:35:50.061Z,10.78
2023-04-24T10:38:22.740Z,11.04
2023-04-24T10:40:54.880Z,11.00
2023-04-24T10:43:24.574Z,10.95
2023-04-24T10:46:11.480Z,11.09
2023-04-24T10:48:46.535Z,10.99
2023-04-24T10:51:16.918Z,10.96
2023-04-24T10:53:46.434Z,11.12
2023-04-24T10:56:19.926Z,11.11
2023-04-24T10:58:54.232Z,11.16
2023-04-24T11:01:30.898Z,11.02
2023-04-24T11:04:03.284Z,10.96
2023-04-24T11:06:36.859Z,11.02
2023-04-24T11:09:08.633Z,11.01
2023-04-24T11:11:41.594Z,11.03
2023-04-24T11:14:12.189Z,11.19
2023-04-24T11:16:48.548Z,11.31
2023-04-24T11:19:29.705Z,11.48
2023-04-24T11:22:04.462Z,11.35
2023-04-24T11:24:35.873Z,11.42
2023-04-24T11:27:20.884Z,11.29
2023-04-24T11:29:52.097Z,11.43
2023-04-24T11:32:32.725Z,11.41
2023-04-24T11:35:03.634Z,11.48
2023-04-24T11:37:37.958Z,11.52
2023-04-24T11:40:09.463Z,11.61
2023-04-24T11:42:43.243Z,11.61
2023-04-24T11:45:14.358Z,11.56
2023-04-24T11:47:44.550Z,11.52
2023-04-24T11:50:15.232Z,11.39
2023-04-24T11:52:46.124Z,11.51
2023-04-24T11:55:27.960Z,11.47
2023-04-24T11:58:02.765Z,11.57
2023-04-24T12:00:34.840Z,11.56
2023-04-24T12:03:09.840Z,11.69
2023-04-24T12:05:40.359Z,11.68
2023-04-24T12:08:10.521Z,11.37
2023-04-24T12:10:40.100Z,11.22
2023-04-24T12:13:13.879Z,11.15
2023-04-24T12:15:44.656Z,11.12
2023-04-24T12:18:18.081Z,11.32
2023-04-24T12:20:47.854Z,11.26
2023-04-24T12:23:18.734Z,11.26
2023-04-24T12:25:48.349Z,11.40
2023-04-24T12:28:20.441Z,11.40
2023-04-24T12:30:52.503Z,11.61
2023-04-24T12:33:22.979Z,11.40
2023-04-24T12:35:55.588Z,11.25
2023-04-24T12:38:27.054Z,11.31
2023-04-24T12:41:06.055Z,11.27
2023-04-24T12:43:38.861Z,11.10
2023-04-24T12:46:12.684Z,11.01
2023-04-24T12:48:42.536Z,10.93
2023-04-24T12:51:12.290Z,10.93
2023-04-24T12:53:42.105Z,10.85
2023-04-24T12:56:12.061Z,10.83
2023-04-24T12:58:44.111Z,10.79
2023-04-24T13:01:13.814Z,10.76
2023-04-24T13:03:44.312Z,10.64
2023-04-24T13:06:14.162Z,10.59
2023-04-24T13:08:43.659Z,10.56
2023-04-24T13:11:13.210Z,10.23
2023-04-24T13:13:45.320Z,10.23
2023-04-24T13:16:14.913Z,10.27
2023-04-24T13:18:44.429Z,10.35
2023-04-24T13:21:13.961Z,10.39
2023-04-24T13:23:43.581Z,10.49
2023-04-24T13:26:13.297Z,10.37
2023-04-24T13:28:45.334Z,10.46
2023-04-24T13:31:14.895Z,10.39
2023-04-24T13:33:44.829Z,10.43
2023-04-24T13:36:14.669Z,10.48
2023-04-24T13:38:44.212Z,10.48
2023-04-24T13:41:13.742Z,10.42
2023-04-24T13:43:46.089Z,10.46
2023-04-24T13:46:16.014Z,10.41
2023-04-24T13:48:45.610Z,10.35
2023-04-24T13:51:15.084Z,10.15
2023-04-24T13:53:44.678Z,10.23
2023-04-24T13:56:15.209Z,10.09
2023-04-24T13:58:47.304Z,10.04
2023-04-24T14:01:16.996Z,10.06
2023-04-24T14:03:47.496Z,10.07
2023-04-24T14:06:17.378Z,10.09
2023-04-24T14:08:46.933Z,10.20
2023-04-24T14:11:16.533Z,10.31
2023-04-24T14:13:49.317Z,10.22
2023-04-24T14:16:18.904Z,10.23
2023-04-24T14:18:48.494Z,10.20
2023-04-24T14:21:18.230Z,10.29
2023-04-24T14:23:47.775Z,10.26
2023-04-24T14:26:17.386Z,10.26
2023-04-24T14:28:49.699Z,10.24
2023-04-24T14:31:20.688Z,10.17
2023-04-24T14:33:50.496Z,10.06
2023-04-24T14:36:20.284Z,9.96
2023-04-24T14:38:49.780Z,9.66
2023-04-24T14:41:19.291Z,9.32
2023-04-24T14:43:51.422Z,9.05
2023-04-24T14:46:20.991Z,8.72
2023-04-24T14:48:50.973Z,8.56
2023-04-24T14:51:20.774Z,8.51
2023-04-24T14:53:50.297Z,8.41
2023-04-24T14:56:19.809Z,8.36
2023-04-24T14:58:52.439Z,8.27
2023-04-24T15:01:22.382Z,8.03
2023-04-24T15:03:52.319Z,8.03
2023-04-24T15:06:22.504Z,7.90
2023-04-24T15:08:52.090Z,7.89
2023-04-24T15:11:22.049Z,7.85
2023-04-24T15:13:54.377Z,7.85
2023-04-24T15:16:23.992Z,7.82
2023-04-24T15:18:53.531Z,7.74
2023-04-24T15:21:23.289Z,7.83
2023-04-24T15:23:52.747Z,7.75
2023-04-24T15:26:22.320Z,7.57
2023-04-24T15:28:54.716Z,7.62
2023-04-24T15:31:24.330Z,7.57
2023-04-24T15:33:54.229Z,7.68
2023-04-24T15:36:24.550Z,7.62
2023-04-24T15:38:54.165Z,7.39
2023-04-24T15:41:23.680Z,7.16
2023-04-24T15:43:55.759Z,7.18
2023-04-24T15:46:25.551Z,7.13
2023-04-24T15:48:55.126Z,7.11
2023-04-24T15:51:24.588Z,7.06
2023-04-24T15:53:54.097Z,6.95
2023-04-24T15:56:24.166Z,6.83
2023-04-24T15:58:56.463Z,6.72
2023-04-24T16:01:26.215Z,6.75
2023-04-24T16:03:55.935Z,6.70
2023-04-24T16:06:25.593Z,6.68
2023-04-24T16:08:57.280Z,6.70
2023-04-24T16:11:28.306Z,6.71
2023-04-24T16:14:00.438Z,6.56
2023-04-24T16:16:30.735Z,6.52
2023-04-24T16:19:00.285Z,6.29
2023-04-24T16:21:29.745Z,6.24
2023-04-24T16:23:59.268Z,6.10
2023-04-24T16:26:29.027Z,6.06
2023-04-24T16:29:01.242Z,6.05
2023-04-24T16:31:30.854Z,6.04
2023-04-24T16:34:00.939Z,5.97
2023-04-24T16:36:30.429Z,5.98
2023-04-24T16:39:01.221Z,5.89
2023-04-24T16:41:30.755Z,5.93
2023-04-24T16:44:02.824Z,5.80
2023-04-24T16:46:32.331Z,5.76
2023-04-24T16:49:01.832Z,5.74
2023-04-24T16:51:31.962Z,5.59
2023-04-24T16:54:01.437Z,5.43
2023-04-24T16:56:30.976Z,5.33
2023-04-24T16:59:03.476Z,5.31
2023-04-24T17:01:33.007Z,5.32
2023-04-24T17:04:02.770Z,5.27
2023-04-24T17:06:32.438Z,5.20
2023-04-24T17:09:02.598Z,5.23
2023-04-24T17:11:32.415Z,5.30
2023-04-24T17:14:04.808Z,5.28
2023-04-24T17:16:34.408Z,5.29
2023-04-24T17:19:04.464Z,5.34
2023-04-24T17:21:34.374Z,5.48
2023-04-24T17:24:03.881Z,5.34
2023-04-24T17:26:33.969Z,5.37
2023-04-24T17:29:06.230Z,5.33
2023-04-24T17:31:35.742Z,5.34
2023-04-24T17:34:05.519Z,5.31
2023-04-24T17:36:35.499Z,5.38
2023-04-24T17:39:05.170Z,5.35
2023-04-24T17:41:34.669Z,5.36
2023-04-24T17:44:06.708Z,5.43
2023-04-24T17:46:36.252Z,5.40
2023-04-24T17:49:05.904Z,5.42
2023-04-24T17:51:35.665Z,5.46
2023-04-24T17:54:05.179Z,5.46
2023-04-24T17:56:34.678Z,5.49
2023-04-24T17:59:06.753Z,5.48
2023-04-24T18:01:36.293Z,5.48
2023-04-24T18:04:06.208Z,5.56
2023-04-24T18:06:35.845Z,5.61
2023-04-24T18:09:05.572Z,5.66
2023-04-24T18:11:35.104Z,5.66
2023-04-24T18:14:07.360Z,5.67
2023-04-24T18:16:36.928Z,5.67
2023-04-24T18:19:06.423Z,5.71
2023-04-24T18:21:35.986Z,5.71
2023-04-24T18:24:05.518Z,5.71
2023-04-24T18:26:35.017Z,5.71
2023-04-24T18:29:07.131Z,5.75
2023-04-24T18:31:36.769Z,5.78
2023-04-24T18:34:06.265Z,5.79
2023-04-24T18:36:35.930Z,5.79
2023-04-24T18:39:05.679Z,5.81
2023-04-24T18:41:35.600Z,5.85
2023-04-24T18:44:07.859Z,5.80
2023-04-24T18:46:41.740Z,5.78
2023-04-24T18:49:11.299Z,5.77
2023-04-24T18:51:53.266Z,5.79
2023-04-24T18:54:24.069Z,5.79
2023-04-24T18:56:54.269Z,5.77
2023-04-24T18:59:27.521Z,5.75
2023-04-24T19:01:57.260Z,5.81
2023-04-24T19:04:26.796Z,5.80
2023-04-24T19:06:56.574Z,5.81
2023-04-24T19:09:26.106Z,5.76
2023-04-24T19:11:55.698Z,5.77
2023-04-24T19:14:27.908Z,5.74
2023-04-24T19:16:57.589Z,5.77
2023-04-24T19:19:28.974Z,5.75
2023-04-24T19:21:58.484Z,5.80
2023-04-24T19:24:29.220Z,5.81
2023-04-24T19:26:58.781Z,5.76
2023-04-24T19:29:30.915Z,5.80
2023-04-24T19:32:03.279Z,5.74
2023-04-24T19:34:34.718Z,5.75
2023-04-24T19:37:04.320Z,5.73
2023-04-24T19:39:34.421Z,5.73
2023-04-24T19:42:07.280Z,5.72
2023-04-24T19:44:39.677Z,5.79
2023-04-24T19:47:09.217Z,5.76
2023-04-24T19:49:38.777Z,5.77
2023-04-24T19:52:08.456Z,5.79
2023-04-24T19:54:37.932Z,5.80
2023-04-24T19:57:07.810Z,5.76
2023-04-24T19:59:40.277Z,5.78
2023-04-24T20:02:09.812Z,5.77
2023-04-24T20:04:42.454Z,5.80
2023-04-24T20:07:12.277Z,5.79
2023-04-24T20:09:41.777Z,5.83
2023-04-24T20:12:11.846Z,5.82
2023-04-24T20:14:43.924Z,5.81
2023-04-24T20:17:13.447Z,5.84
2023-04-24T20:19:43.160Z,5.81
2023-04-24T20:22:13.742Z,5.83
2023-04-24T20:24:43.843Z,5.83
2023-04-24T20:27:13.448Z,5.84
2023-04-24T20:29:45.596Z,5.83
2023-04-24T20:32:15.442Z,5.84
2023-04-24T20:34:44.953Z,5.88
2023-04-24T20:37:17.350Z,5.87
2023-04-24T20:39:47.284Z,5.85
2023-04-24T20:42:16.841Z,5.85
2023-04-24T20:44:48.939Z,5.87
2023-04-24T20:47:18.626Z,5.87
2023-04-24T20:49:51.053Z,5.88
2023-04-24T20:52:20.901Z,5.87
2023-04-24T20:55:37.834Z,5.87
2023-04-24T20:58:07.424Z,5.87
2023-04-24T21:00:39.927Z,5.87
2023-04-24T21:03:09.779Z,5.86
2023-04-24T21:05:39.631Z,5.87
2023-04-24T21:08:09.636Z,5.87
2023-04-24T21:10:39.151Z,5.86
2023-04-24T21:13:09.076Z,5.86
2023-04-24T21:15:41.221Z,5.87
2023-04-24T21:18:10.864Z,5.88
2023-04-24T21:20:40.835Z,5.88
2023-04-24T21:23:10.542Z,5.85
2023-04-24T21:25:40.490Z,5.84
2023-04-24T21:28:10.374Z,5.83
2023-04-24T21:30:42.509Z,5.84
2023-04-24T21:33:12.649Z,5.84
2023-04-24T21:35:42.228Z,5.83
2023-04-24T21:38:11.743Z,5.80
2023-04-24T21:40:41.718Z,5.83
2023-04-24T21:43:12.452Z,5.80
2023-04-24T21:45:44.517Z,5.81
2023-04-24T21:48:14.052Z,5.82
2023-04-24T21:50:43.543Z,5.84
2023-04-24T21:53:13.229Z,5.81
2023-04-24T21:55:42.770Z,5.80
2023-04-24T21:58:12.665Z,5.83
2023-04-24T22:00:44.846Z,5.84
2023-04-24T22:03:14.591Z,5.83
2023-04-24T22:05:44.196Z,5.82
2023-04-24T22:08:14.028Z,5.83
2023-04-24T22:10:43.507Z,5.84
2023-04-24T22:13:13.024Z,5.83
2023-04-24T22:15:45.177Z,5.80
2023-04-24T22:18:14.723Z,5.79
2023-04-24T22:20:44.716Z,5.80
2023-04-24T22:23:14.319Z,5.83
2023-04-24T22:25:43.862Z,5.80
2023-04-24T22:28:13.345Z,5.79
2023-04-24T22:30:45.411Z,5.80
2023-04-24T22:33:14.914Z,5.81
2023-04-24T22:35:44.433Z,5.78
2023-04-24T22:38:14.133Z,5.75
2023-04-24T22:40:44.074Z,5.75
2023-04-24T22:43:13.594Z,5.75
2023-04-24T22:45:45.744Z,5.75
2023-04-24T22:48:15.250Z,5.75
2023-04-24T22:50:44.864Z,5.77
2023-04-24T22:53:14.420Z,5.77
2023-04-24T22:55:43.959Z,5.77
2023-04-24T22:58:13.588Z,5.74
2023-04-24T23:00:47.166Z,5.76
2023-04-24T23:03:16.866Z,5.76
2023-04-24T23:05:46.922Z,5.75
2023-04-24T23:08:16.704Z,5.75
2023-04-24T23:10:46.226Z,5.74
2023-04-24T23:13:16.416Z,5.77
2023-04-24T23:15:48.717Z,5.72
2023-04-24T23:18:18.223Z,5.76
2023-04-24T23:20:48.282Z,5.76
2023-04-24T23:23:17.897Z,5.78
2023-04-24T23:25:47.360Z,5.77
2023-04-24T23:28:16.926Z,5.77
2023-04-24T23:30:49.232Z,5.77
2023-04-24T23:33:18.733Z,5.77
2023-04-24T23:35:48.483Z,5.77
2023-04-24T23:38:18.217Z,5.72
2023-04-24T23:40:48.001Z,5.73
2023-04-24T23:43:17.516Z,5.71
2023-04-24T23:45:49.652Z,5.71
2023-04-24T23:48:19.210Z,5.69
2023-04-24T23:50:48.755Z,5.73
2023-04-24T23:53:18.451Z,5.70
2023-04-24T23:55:48.202Z,5.68
2023-04-24T23:58:17.926Z,5.69
